Eikyu Maru No.88 — JM6714 — position and weather

sailwx.info

Track history (hours):
 
Tides and Currents Weather Stations Pressure Air Temp Water Temp Dewpoint Dewpoint Depression Visibility Wind Speed Wind Dir Waves Ship Positions

Eikyu Maru No.88

Last reported at 2018-Jul-16 07:15 UTC. Time now 2018-Jul-16 14:28 UTC.
Position N 34°21' E 134°22'.

Length 75 m.

Type: Cargo ship. MMSI: 431602099.

Date/timePositionNaut miles runAvg speedWind from/ knotsBaromVisibWave heightAir tempDewpointWater temp
2018-Jul-16 07:15N 34°21' E 134°22'  
2018-Jul-12 14:25N 33°51' E 134°56'  
2018-Jul-10 05:00N 35°01' E 139°44'611.0
2018-Jul-10 04:30N 35°07' E 139°45'611.2
2018-Jul-10 04:00N 35°12' E 139°46'510.4
2018-Jul-10 03:30N 35°17' E 139°45'510.7
2018-Jul-10 03:00N 35°22' E 139°42'510.3
2018-Jul-10 02:30N 35°27' E 139°46'4 0.1
2018-Jul-08 17:33N 35°23' E 139°46'210.4
2018-Jul-08 17:24N 35°22' E 139°45'4 9.3
2018-Jul-08 16:58N 35°18' E 139°45'510.0
2018-Jul-08 16:29N 35°13' E 139°47'510.4
2018-Jul-08 15:59N 35°08' E 139°46'510.8
2018-Jul-08 15:29N 35°03' E 139°43'611.7
2018-Jul-08 15:00N 34°59' E 139°38'  
Track history (hours):
 
Tides and Currents Weather Stations Pressure Air Temp Water Temp Dewpoint Dewpoint Depression Visibility Wind Speed Wind Dir Waves Ship Positions

Eikyu Maru No.88

Last reported at 2018-Jul-16 07:15 UTC. Time now 2018-Jul-16 14:28 UTC.
Position N 34°21' E 134°22'.

Length 75 m.

Type: Cargo ship. MMSI: 431602099.

Date/timePositionNaut miles runAvg speedWind from/ knotsBaromVisibWave heightAir tempDewpointWater temp
2018-Jul-16 07:15N 34°21' E 134°22'  
2018-Jul-12 14:25N 33°51' E 134°56'  
2018-Jul-10 05:00N 35°01' E 139°44'611.0
2018-Jul-10 04:30N 35°07' E 139°45'611.2
2018-Jul-10 04:00N 35°12' E 139°46'510.4
2018-Jul-10 03:30N 35°17' E 139°45'510.7
2018-Jul-10 03:00N 35°22' E 139°42'510.3
2018-Jul-10 02:30N 35°27' E 139°46'4 0.1
2018-Jul-08 17:33N 35°23' E 139°46'210.4
2018-Jul-08 17:24N 35°22' E 139°45'4 9.3
2018-Jul-08 16:58N 35°18' E 139°45'510.0
2018-Jul-08 16:29N 35°13' E 139°47'510.4
2018-Jul-08 15:59N 35°08' E 139°46'510.8
2018-Jul-08 15:29N 35°03' E 139°43'611.7
2018-Jul-08 15:00N 34°59' E 139°38'  

Dump ship's entire track history